Latest Weather Observations for Yarrawonga

IDV60801

Issued at 2:32 pm EST Saturday 27 August 2016 (issued every 30 minutes, with the page automatically refreshed every 10 minutes)

About weather observations | Map of weather stations | Latest weather observations for VIC | Other Formats
Station Details ID: 081124 Name: YARRAWONGA Lat: -36.03 Lon: 146.03 Height: 128.9 m
Data from the previous 72 hours. | See also: Recent months at Yarrawonga
Date/Time
EST
Temp
°C
App
Temp
°C
Dew
Point
°C
Rel
Hum
%
Delta-T
°C
Wind Press
QNH
hPa
Press
MSL
hPa
Rain since
9am
mm
Dir  Spd
km/h
Gust
km/h
Spd
kts
Gust
kts
27/02:30pm 14.0 12.4 4.3 52 4.5 NNW 2 6 1 3 1022.4 1022.7 0.2
27/02:00pm 13.3 10.8 4.7 56 4.0 SSW 7 15 4 8 1022.5 1022.8 0.2
27/01:30pm 13.4 10.9 4.8 56 4.0 WSW 7 13 4 7 1023.1 1023.3 0.2
27/01:00pm 13.7 11.1 4.3 53 4.3 SSW 7 15 4 8 1023.2 1023.4 0.0
27/12:30pm 13.3 10.9 4.5 55 4.1 WNW 6 13 3 7 1023.7 1023.9 0.0
27/12:00pm 11.7 9.5 3.5 57 3.6 SW 4 9 2 5 1024.1 1024.3 0.0
27/11:30am 12.6 10.2 5.1 60 3.5 WNW 7 15 4 8 1024.2 1024.4 0.0
27/11:00am 11.6 8.8 5.3 65 2.9 W 9 17 5 9 1024.5 1024.7 0.0
27/10:30am 11.4 8.5 6.3 71 2.4 W 11 17 6 9 1025.0 1025.2 0.0
27/10:00am 10.0 8.7 6.2 77 1.8 WSW 2 4 1 2 1025.0 1025.2 0.0
27/09:30am 8.4 7.5 5.9 84 1.1 CALM 0 4 0 2 1025.2 1025.4 0.0
27/09:00am 7.8 6.0 5.6 86 1.0 WSW 4 6 2 3 1024.9 1025.1 0.0
27/08:30am 6.7 4.6 5.8 94 0.4 W 6 9 3 5 1024.8 1025.0 0.0
27/08:00am 4.7 3.5 4.6 99 0.0 CALM 0 0 0 0 1024.5 1024.7 0.0
27/07:30am 2.7 1.1 2.6 99 0.0 CALM 0 0 0 0 1024.0 1024.2 0.0
27/07:00am 0.8 -1.1 0.7 99 0.0 CALM 0 0 0 0 1023.7 1023.9 0.0
27/06:30am 0.9 -1.0 0.8 99 0.0 CALM 0 0 0 0 1023.4 1023.6 0.0
27/06:00am 1.1 -0.8 0.8 98 0.1 CALM 0 0 0 0 1023.3 1023.5 0.0
27/05:30am 1.5 -0.3 1.2 98 0.1 CALM 0 0 0 0 1023.1 1023.3 0.0
27/05:00am 1.2 -0.7 0.8 97 0.1 CALM 0 0 0 0 1022.8 1023.1 0.0
27/04:30am 2.5 0.9 2.2 98 0.1 CALM 0 2 0 1 1022.6 1022.9 0.0
27/04:00am 1.8 -0.4 0.8 93 0.4 W 2 2 1 1 1022.6 1022.9 0.0
27/03:30am 3.3 0.9 2.3 93 0.4 W 4 4 2 2 1022.5 1022.8 0.0
27/03:00am 4.6 2.1 3.6 93 0.4 W 6 7 3 4 1022.4 1022.7 0.0
27/02:30am 5.0 2.9 3.8 92 0.5 WSW 4 6 2 3 1022.8 1023.1 0.0
27/02:00am 5.7 3.7 4.3 91 0.6 WSW 4 4 2 2 1022.9 1023.2 0.0
27/01:30am 6.5 4.6 4.8 89 0.7 W 4 6 2 3 1023.3 1023.5 0.0
27/01:00am 6.5 4.2 4.8 89 0.7 WSW 6 7 3 4 1023.4 1023.6 0.0
27/12:30am 6.1 3.7 4.3 88 0.8 WSW 6 7 3 4 1023.6 1023.8 0.0
27/12:00am 7.1 4.8 4.8 85 1.0 W 6 9 3 5 1023.5 1023.7 0.0
 
Date/Time
EST
Temp
°C
App
Temp
°C
Dew
Point
°C
Rel
Hum
%
Delta-T
°C
Wind Press
QNH
hPa
Press
MSL
hPa
Rain since
9am
mm
Dir  Spd
km/h
Gust
km/h
Spd
kts
Gust
kts
26/11:30pm 8.1 5.2 4.7 79 1.5 W 9 13 5 7 1023.6 1023.8 0.0
26/11:00pm 8.1 5.8 4.9 80 1.4 W 6 9 3 5 1023.3 1023.5 0.0
26/10:30pm 8.1 5.6 4.9 80 1.4 WNW 7 9 4 5 1023.3 1023.5 0.0
26/10:00pm 8.4 5.9 4.8 78 1.6 W 7 9 4 5 1023.2 1023.4 0.0
26/09:30pm 8.1 5.6 5.0 81 1.4 W 7 9 4 5 1023.1 1023.3 0.0
26/09:00pm 8.7 6.3 5.1 78 1.6 WNW 7 9 4 5 1022.8 1023.1 0.0
26/08:30pm 8.4 6.3 6.0 85 1.1 W 6 9 3 5 1022.7 1023.0 0.0
26/08:00pm 8.6 6.5 5.9 83 1.2 W 6 7 3 4 1022.6 1022.9 0.0
26/07:30pm 9.3 7.0 5.5 77 1.7 WNW 7 11 4 6 1022.5 1022.8 0.0
26/07:00pm 9.1 7.4 6.0 81 1.4 WNW 4 6 2 3 1022.5 1022.8 0.0
26/06:30pm 9.1 7.0 5.7 79 1.6 W 6 6 3 3 1022.0 1022.2 0.0
26/06:00pm 8.9 6.8 6.0 82 1.3 WSW 6 6 3 3 1021.6 1021.8 0.0
26/05:30pm 10.0 8.1 6.9 81 1.5 WSW 6 6 3 3 1021.4 1021.6 0.0
26/05:00pm 11.0 8.8 6.4 73 2.2 SW 7 9 4 5 1021.2 1021.4 0.0
26/04:30pm 12.9 9.9 5.8 62 3.4 WSW 11 15 6 8 1021.1 1021.3 0.0
26/04:00pm 12.9 9.6 6.5 65 3.1 SW 13 17 7 9 1021.0 1021.2 0.0
26/03:30pm 13.0 9.1 5.4 60 3.6 WSW 15 20 8 11 1020.9 1021.1 0.0
26/03:00pm 12.1 8.6 5.3 63 3.2 SW 13 17 7 9 1021.0 1021.2 0.0
26/02:30pm 11.6 7.5 4.6 62 3.2 SW 15 17 8 9 1021.1 1021.3 0.0
26/02:00pm 11.8 8.2 4.8 62 3.2 WSW 13 20 7 11 1021.2 1021.4 0.0
26/01:30pm 12.1 8.3 5.7 65 3.0 SW 15 20 8 11 1021.3 1021.5 0.0
26/01:00pm 13.3 9.5 5.9 61 3.5 WSW 15 22 8 12 1021.5 1021.7 0.0
26/12:30pm 13.0 8.9 6.4 64 3.2 SSW 17 22 9 12 1021.8 1022.0 0.0
26/12:00pm 12.4 8.3 6.0 65 3.0 SW 17 22 9 12 1022.1 1022.3 0.0
26/11:30am 11.8 7.5 5.2 64 3.1 SSW 17 20 9 11 1022.3 1022.6 0.0
26/11:00am 11.0 6.7 5.3 68 2.6 SSW 17 24 9 13 1022.4 1022.7 0.0
26/10:30am 10.4 7.2 6.9 79 1.7 SSW 13 17 7 9 1022.5 1022.8 0.0
26/10:00am 9.5 6.7 6.9 84 1.2 SW 11 15 6 8 1022.5 1022.8 0.0
26/09:30am 8.2 5.7 6.5 89 0.8 SSW 9 15 5 8 1022.6 1022.9 0.0
26/09:00am 7.1 3.7 6.0 93 0.5 SW 13 17 7 9 1022.5 1022.8 0.2
26/08:30am 6.0 3.4 5.9 99 0.0 SW 9 13 5 7 1022.4 1022.7 0.2
26/08:00am 4.0 1.3 3.9 99 0.0 SW 7 9 4 5 1022.2 1022.5 0.2
26/07:30am 2.1 -0.9 2.0 99 0.0 SW 7 9 4 5 1021.9 1022.1 0.2
26/07:00am 0.7 -2.9 0.6 99 0.0 SW 9 11 5 6 1021.3 1021.5 0.2
26/06:30am 0.7 -2.5 0.6 99 0.0 WSW 7 9 4 5 1020.9 1021.1 0.2
26/06:00am 1.2 -1.9 1.1 99 0.0 WSW 7 9 4 5 1020.6 1020.8 0.2
26/05:30am 0.8 -2.2 0.7 99 0.0 SW 6 7 3 4 1020.4 1020.6 0.2
26/05:00am 0.7 -2.3 0.6 99 0.0 WSW 6 6 3 3 1019.9 1020.1 0.2
26/04:30am 1.3 -1.3 1.0 98 0.1 WSW 4 6 2 3 1019.6 1019.8 0.2
26/04:00am 1.2 -1.8 0.9 98 0.1 WSW 6 9 3 5 1019.4 1019.6 0.2
26/03:30am 1.6 -2.3 1.3 98 0.1 WSW 11 11 6 6 1019.2 1019.4 0.2
26/03:00am 1.0 -1.3 0.6 97 0.1 S 2 6 1 3 1019.3 1019.5 0.2
26/02:30am 2.0 -0.5 1.6 97 0.2 WSW 4 6 2 3 1019.3 1019.5 0.2
26/02:00am 2.7 -0.6 2.4 98 0.1 W 9 13 5 7 1019.1 1019.3 0.2
26/01:30am 2.2 -1.6 1.8 97 0.2 WSW 11 15 6 8 1019.1 1019.3 0.2
26/01:00am 2.5 -0.9 1.9 96 0.2 SW 9 11 5 6 1019.0 1019.2 0.2
26/12:30am 2.5 -1.3 1.8 95 0.3 SW 11 11 6 6 1018.9 1019.1 0.2
26/12:00am 3.3 -0.7 2.6 95 0.3 SW 13 13 7 7 1018.9 1019.1 0.2
 
Date/Time
EST
Temp
°C
App
Temp
°C
Dew
Point
°C
Rel
Hum
%
Delta-T
°C
Wind Press
QNH
hPa
Press
MSL
hPa
Rain since
9am
mm
Dir  Spd
km/h
Gust
km/h
Spd
kts
Gust
kts
25/11:30pm 3.9 0.0 3.3 96 0.2 SW 13 13 7 7 1018.9 1019.1 0.0
25/11:00pm 3.2 0.3 2.5 95 0.3 SW 7 9 4 5 1018.9 1019.1 0.0
25/10:30pm 2.9 0.5 2.0 94 0.4 SSW 4 6 2 3 1018.7 1018.9 0.0
25/10:00pm 3.5 1.1 2.2 91 0.5 SSW 4 9 2 5 1018.7 1018.9 0.0
25/09:30pm 5.2 2.5 3.5 89 0.7 SW 7 13 4 7 1018.4 1018.6 0.0
25/09:00pm 5.1 2.3 3.4 89 0.7 SSW 7 9 4 5 1018.1 1018.3 0.0
25/08:30pm 5.7 3.9 3.7 87 0.8 SW 2 6 1 3 1017.8 1018.0 0.0
25/08:00pm 5.9 3.2 3.9 87 0.9 SSW 7 11 4 6 1017.6 1017.8 0.0
25/07:30pm 6.4 2.7 4.2 86 0.9 SW 13 15 7 8 1017.2 1017.4 0.0
25/07:00pm 6.7 2.6 4.4 85 1.0 SW 15 17 8 9 1016.7 1016.9 0.0
25/06:30pm 8.2 3.8 4.8 79 1.5 SW 17 22 9 12 1016.2 1016.4 0.0
25/06:00pm 8.4 4.8 5.0 79 1.5 SW 13 17 7 9 1015.8 1016.0 0.0
25/05:30pm 9.8 6.3 5.4 74 2.0 SSW 13 19 7 10 1015.5 1015.6 0.0
25/05:00pm 11.2 6.3 5.3 67 2.7 SSW 20 30 11 16 1014.8 1015.0 0.0
25/04:30pm 11.8 5.7 5.0 63 3.1 SW 26 33 14 18 1014.6 1014.8 0.0
25/04:00pm 11.2 5.1 4.9 65 2.9 SW 26 35 14 19 1014.4 1014.6 0.0
25/03:30pm 12.6 6.6 5.5 62 3.3 SW 26 37 14 20 1014.2 1014.4 0.0
25/03:00pm 12.6 6.7 5.8 63 3.2 SW 26 33 14 18 1014.2 1014.4 0.0
25/02:30pm 12.4 6.7 6.5 67 2.8 SW 26 33 14 18 1014.1 1014.3 0.0
25/02:00pm 11.8 5.3 6.5 70 2.5 SW 30 37 16 20 1014.0 1014.2 0.0
25/01:46pm 11.7 5.7 7.0 73 2.3 SW 28 48 15 26 1013.8 1014.0 0.0
25/01:30pm 11.7 6.2 6.0 68 2.7 SW 24 33 13 18 1013.8 1014.0 0.0
25/01:00pm 12.6 8.1 6.9 68 2.8 SW 20 28 11 15 1013.9 1014.1 0.0
25/12:30pm 10.9 6.0 5.2 68 2.6 SW 20 28 11 15 1014.2 1014.4 0.0
25/12:00pm 10.8 6.2 6.4 74 2.1 SW 20 28 11 15 1014.5 1014.7 0.0
25/11:30am 11.1 6.1 6.5 73 2.2 SW 22 30 12 16 1014.6 1014.8 0.0
25/11:00am 10.7 4.8 5.7 71 2.3 SW 26 33 14 18 1014.5 1014.7 0.0
25/10:30am 10.4 4.9 5.8 73 2.1 SW 24 35 13 19 1014.4 1014.6 0.0
25/10:00am 10.0 5.1 6.7 80 1.6 SW 22 32 12 17 1014.2 1014.4 0.0
25/09:30am 8.9 3.9 6.3 84 1.2 SW 22 30 12 16 1014.1 1014.3 0.0
25/09:00am 7.8 3.4 6.6 92 0.6 SW 19 24 10 13 1014.1 1014.3 0.0
25/08:30am 6.3 2.1 5.7 96 0.3 WSW 17 20 9 11 1013.9 1014.1 0.0
25/08:00am 4.2 1.2 4.1 99 0.0 WSW 9 13 5 7 1013.7 1013.9 0.0
25/07:30am 1.9 -1.1 1.8 99 0.0 WSW 7 9 4 5 1013.4 1013.6 0.0
25/07:00am 1.6 -1.3 1.5 99 0.0 WSW 6 7 3 4 1013.0 1013.2 0.0
25/06:30am 0.8 -2.8 0.5 98 0.1 WSW 9 9 5 5 1012.7 1012.9 0.0
25/06:00am 1.5 -1.4 1.2 98 0.1 SW 6 7 3 4 1012.3 1012.5 0.0
25/05:30am 2.0 -1.4 1.9 99 0.0 WSW 9 11 5 6 1011.9 1012.1 0.0
25/05:00am 1.8 -1.2 1.7 99 0.0 SW 7 9 4 5 1011.5 1011.7 0.0
25/04:30am 1.4 -2.1 1.3 99 0.0 WSW 9 9 5 5 1011.5 1011.7 0.0
25/04:00am 1.8 -2.0 1.7 99 0.0 WSW 11 11 6 6 1011.3 1011.5 0.0
25/03:30am 1.9 -1.5 1.8 99 0.0 WSW 9 9 5 5 1011.3 1011.5 0.0
25/03:00am 1.9 -1.5 1.8 99 0.0 WSW 9 9 5 5 1011.3 1011.5 0.0
25/02:30am 2.0 -1.4 1.9 99 0.0 WSW 9 11 5 6 1011.3 1011.5 0.0
25/02:00am 2.2 -0.8 2.1 99 0.0 WSW 7 9 4 5 1011.4 1011.6 0.0
25/01:30am 2.9 -0.3 2.8 99 0.0 WSW 9 11 5 6 1011.5 1011.7 0.0
25/01:00am 3.0 -0.3 2.7 98 0.1 WSW 9 11 5 6 1011.5 1011.7 0.0
25/12:30am 3.1 -0.2 2.7 97 0.2 WSW 9 11 5 6 1011.5 1011.7 0.0
25/12:00am 3.9 0.8 3.5 97 0.2 W 9 11 5 6 1011.6 1011.8 0.0
 
Date/Time
EST
Temp
°C
App
Temp
°C
Dew
Point
°C
Rel
Hum
%
Delta-T
°C
Wind Press
QNH
hPa
Press
MSL
hPa
Rain since
9am
mm
Dir  Spd
km/h
Gust
km/h
Spd
kts
Gust
kts
24/11:30pm 4.2 0.7 3.6 96 0.2 W 11 15 6 8 1011.4 1011.6 0.0
24/11:00pm 4.2 1.1 3.5 95 0.3 W 9 11 5 6 1011.4 1011.6 0.0
24/10:30pm 4.9 1.9 4.0 94 0.4 W 9 9 5 5 1011.5 1011.7 0.0
24/10:00pm 4.7 1.6 3.8 94 0.4 WSW 9 11 5 6 1011.4 1011.6 0.0
24/09:30pm 6.1 3.2 4.7 91 0.6 W 9 11 5 6 1011.5 1011.7 0.0
24/09:00pm 6.4 3.6 5.0 91 0.6 WSW 9 13 5 7 1011.4 1011.6 0.0
24/08:30pm 7.2 4.1 5.5 89 0.8 WSW 11 13 6 7 1011.4 1011.6 0.0
24/08:00pm 7.6 4.2 5.9 89 0.8 WSW 13 15 7 8 1011.4 1011.6 0.0
24/07:30pm 7.8 4.9 6.3 90 0.7 W 11 11 6 6 1011.4 1011.6 0.0
24/07:00pm 8.3 5.9 6.8 90 0.7 WSW 9 11 5 6 1011.3 1011.5 0.0
24/06:30pm 8.7 6.0 7.2 90 0.7 WSW 11 13 6 7 1011.0 1011.2 0.0
24/06:00pm 9.6 7.3 7.5 87 1.0 WSW 9 11 5 6 1010.8 1011.0 0.0
24/05:30pm 11.2 9.3 8.9 86 1.1 WSW 9 11 5 6 1010.5 1010.7 0.0
24/05:00pm 11.8 9.5 9.0 83 1.4 WSW 11 13 6 7 1010.5 1010.7 0.0
24/04:30pm 12.7 10.4 9.0 78 1.9 WSW 11 17 6 9 1010.5 1010.7 0.0
24/04:00pm 13.3 11.3 8.8 74 2.3 SW 9 13 5 7 1010.5 1010.7 0.0
24/03:30pm 13.6 11.6 8.7 72 2.5 WSW 9 9 5 5 1010.8 1011.0 0.0
24/03:00pm 13.9 13.2 8.5 70 2.7 NW 2 6 1 3 1010.8 1011.0 0.0

Other Formats:

Comma delimited format used in spreadsheet applications
http://www.bom.gov.au/fwo/IDV60801/IDV60801.94862.axf

JavaScript Object Notation format (JSON) in row-major order
http://www.bom.gov.au/fwo/IDV60801/IDV60801.94862.json